This is the latest recevied weather packets stored in our database for station/object OK1VCF-8. If no packets are shown the sender has not sent any weather packets the latest 10 day(s).
| Time | Temp. | Humidity | Pressure | Rain* | Wind** | Luminosity | Snow |
|---|---|---|---|---|---|---|---|
| 1777606148 | 3.33° C | 77% | 1030.6 hPa | - | - | - | - |
| 1777605711 | 3.33° C | 76% | 1030.6 hPa | - | - | - | - |
| 1777605273 | 3.33° C | 76% | 1030.5 hPa | - | - | - | - |
| 1777604672 | 3.33° C | 76% | 1030.6 hPa | - | - | - | - |
| 1777604232 | 3.33° C | 76% | 1030.5 hPa | - | - | - | - |
| 1777603794 | 4.44° C | 74% | 1030.4 hPa | - | - | - | - |
| 1777603357 | 3.33° C | 76% | 1030.4 hPa | - | - | - | - |
| 1777602918 | 3.33° C | 76% | 1030.3 hPa | - | - | - | - |
| 1777602480 | 3.89° C | 74% | 1030.4 hPa | - | - | - | - |
| 1777602042 | 4.44° C | 74% | 1030.4 hPa | - | - | - | - |
| 1777601602 | 4.44° C | 74% | 1030.4 hPa | - | - | - | - |
| 1777601166 | 4.44° C | 74% | 1030.4 hPa | - | - | - | - |
| 1777600729 | 3.89° C | 74% | 1030.3 hPa | - | - | - | - |
| 1777600292 | 4.44° C | 74% | 1030.4 hPa | - | - | - | - |
| 1777599854 | 3.89° C | 76% | 1030.2 hPa | - | - | - | - |
| 1777599416 | 3.33° C | 76% | 1030.2 hPa | - | - | - | - |
| 1777598977 | 3.33° C | 76% | 1030.3 hPa | - | - | - | - |
| 1777598540 | 3.33° C | 75% | 1030.3 hPa | - | - | - | - |
| 1777597938 | 5° C | 70% | 1030.2 hPa | - | - | - | - |
| 1777597502 | 5° C | 70% | 1030.2 hPa | - | - | - | - |
| 1777597042 | 5.56° C | 68% | 1030.2 hPa | - | - | - | - |
| 1777596557 | 5.56° C | 68% | 1030.2 hPa | - | - | - | - |
| 1777596076 | 5.56° C | 69% | 1030.2 hPa | - | - | - | - |
| 1777595593 | 5.56° C | 68% | 1030.2 hPa | - | - | - | - |
| 1777595112 | 5.56° C | 68% | 1030.2 hPa | - | - | - | - |
* Rain since midnight (hover to see other rain measurements)
** Current wind speed in m/s (hover to see current wind gust speed)